West Akron, Ohio
Current Conditions -  °F | °C
As of 12:54 AM on Wednesday 26 Nov 2014 (Local Time) from KAKR Reporting Station
Overcast Overcast  
Wind Chill: 27°   Ceiling: 2100
Heat Index: 32°   Visibility: 10mi
Dew Point: 24°   Wind: 5mph
Humidity: 73%   Direction: 20°NNE
Pressure: 30.18"   Gusts: NA
Location:  41.0707°N, 81.5458°W
Report Text: KAKR 260554Z AUTO 02004KT 10SM OVC021 00/M04 A3018 RMK AO2 SLP227 T00001044 10022 20000 55006
Loading
Personal Weather Stations






























Interactive Weather Map New forecast layout! Learn more

10-Day Weather Forecast

Advertisements
Track Severe Weather on mobile